createdAt,value
2018-08-18T00:01:54.690Z,16.00
2018-08-18T00:04:35.020Z,16.00
2018-08-18T00:07:05.166Z,15.90
2018-08-18T00:09:35.179Z,15.90
2018-08-18T00:12:05.394Z,15.80
2018-08-18T00:14:35.431Z,15.90
2018-08-18T00:17:06.694Z,15.90
2018-08-18T00:19:37.743Z,15.80
2018-08-18T00:22:07.758Z,15.80
2018-08-18T00:24:45.265Z,15.80
2018-08-18T00:27:15.296Z,15.80
2018-08-18T00:29:45.330Z,15.80
2018-08-18T00:32:15.306Z,15.80
2018-08-18T00:34:49.410Z,15.70
2018-08-18T00:37:19.489Z,15.70
2018-08-18T00:39:49.586Z,15.70
2018-08-18T00:42:19.586Z,15.70
2018-08-18T00:44:49.598Z,15.70
2018-08-18T00:47:19.655Z,15.70
2018-08-18T00:49:49.675Z,15.70
2018-08-18T00:52:19.821Z,15.70
2018-08-18T00:54:49.864Z,15.60
2018-08-18T00:57:30.057Z,15.60
2018-08-18T01:00:00.268Z,15.60
2018-08-18T01:02:30.397Z,15.50
2018-08-18T01:05:02.269Z,15.50
2018-08-18T01:07:33.402Z,15.50
2018-08-18T01:10:03.799Z,15.50
2018-08-18T01:12:35.257Z,15.40
2018-08-18T01:15:08.089Z,15.40
2018-08-18T01:17:38.334Z,15.50
2018-08-18T01:20:08.808Z,15.40
2018-08-18T01:22:38.995Z,15.40
2018-08-18T01:25:09.000Z,15.40
2018-08-18T01:27:50.806Z,15.40
2018-08-18T01:30:20.875Z,15.40
2018-08-18T01:32:50.954Z,15.30
2018-08-18T01:35:22.453Z,15.30
2018-08-18T01:37:52.526Z,15.30
2018-08-18T01:40:22.543Z,15.40
2018-08-18T01:42:52.591Z,15.30
2018-08-18T01:45:22.710Z,15.20
2018-08-18T01:47:52.758Z,15.20
2018-08-18T01:50:22.810Z,15.10
2018-08-18T01:52:52.858Z,15.10
2018-08-18T01:55:22.886Z,15.10
2018-08-18T01:57:52.965Z,15.00
2018-08-18T02:00:28.222Z,15.00
2018-08-18T02:02:58.283Z,15.00
2018-08-18T02:05:28.408Z,14.90
2018-08-18T02:07:58.669Z,14.90
2018-08-18T02:10:28.682Z,14.90
2018-08-18T02:13:03.926Z,14.90
2018-08-18T02:15:34.191Z,14.90
2018-08-18T02:18:04.308Z,14.90
2018-08-18T02:20:34.343Z,14.90
2018-08-18T02:23:04.345Z,14.90
2018-08-18T02:25:34.881Z,14.90
2018-08-18T02:28:05.161Z,14.80
2018-08-18T02:30:35.254Z,14.70
2018-08-18T02:33:05.417Z,14.70
2018-08-18T02:35:35.550Z,14.70
2018-08-18T02:38:06.066Z,14.60
2018-08-18T02:40:36.240Z,14.60
2018-08-18T02:43:22.403Z,14.60
2018-08-18T02:45:52.433Z,14.50
2018-08-18T02:48:22.494Z,14.50
2018-08-18T02:50:53.013Z,14.50
2018-08-18T02:53:28.759Z,14.40
2018-08-18T02:55:58.762Z,14.40
2018-08-18T02:58:28.770Z,14.40
2018-08-18T03:00:58.794Z,14.30
2018-08-18T03:03:28.778Z,14.30
2018-08-18T03:06:02.832Z,14.30
2018-08-18T03:08:32.854Z,14.30
2018-08-18T03:11:02.916Z,14.30
2018-08-18T03:13:32.917Z,14.20
2018-08-18T03:16:04.162Z,14.20
2018-08-18T03:18:54.172Z,14.20
2018-08-18T03:21:30.601Z,14.20
2018-08-18T03:24:13.059Z,14.10
2018-08-18T03:26:46.193Z,14.00
2018-08-18T03:29:16.848Z,14.00
2018-08-18T03:31:47.282Z,14.00
2018-08-18T03:34:17.738Z,13.90
2018-08-18T03:36:54.488Z,13.90
2018-08-18T03:39:29.697Z,14.00
2018-08-18T03:42:02.067Z,14.00
2018-08-18T03:44:32.253Z,14.00
2018-08-18T03:47:02.238Z,14.00
2018-08-18T03:49:32.293Z,14.00
2018-08-18T03:52:02.360Z,14.00
2018-08-18T03:54:32.472Z,14.00
2018-08-18T03:57:02.521Z,14.00
2018-08-18T03:59:32.570Z,14.00
2018-08-18T04:02:02.959Z,14.00
2018-08-18T04:04:34.347Z,14.00
2018-08-18T04:07:05.639Z,14.00
2018-08-18T04:09:36.859Z,13.90
2018-08-18T04:12:08.483Z,13.90
2018-08-18T04:14:42.653Z,13.90
2018-08-18T04:17:30.024Z,13.90
2018-08-18T04:20:00.094Z,13.90
2018-08-18T04:22:30.245Z,13.80
2018-08-18T04:25:00.336Z,13.80
2018-08-18T04:27:44.354Z,13.80
2018-08-18T04:30:18.591Z,13.80
2018-08-18T04:33:05.030Z,13.80
2018-08-18T04:35:35.076Z,13.70
2018-08-18T04:38:05.541Z,13.70
2018-08-18T04:40:37.406Z,13.70
2018-08-18T04:43:07.516Z,13.70
2018-08-18T04:45:37.683Z,13.70
2018-08-18T04:48:08.153Z,13.70
2018-08-18T04:50:38.323Z,13.60
2018-08-18T04:53:08.308Z,13.70
2018-08-18T04:55:38.335Z,13.70
2018-08-18T04:58:08.318Z,13.60
2018-08-18T05:00:38.324Z,13.60
2018-08-18T05:03:08.953Z,13.60
2018-08-18T05:05:38.992Z,13.60
2018-08-18T05:08:09.068Z,13.60
2018-08-18T05:10:40.490Z,13.70
2018-08-18T05:13:10.567Z,13.70
2018-08-18T05:15:40.624Z,13.70
2018-08-18T05:18:10.675Z,13.80
2018-08-18T05:20:40.696Z,13.80
2018-08-18T05:23:26.933Z,13.90
2018-08-18T05:25:56.986Z,14.00
2018-08-18T05:28:27.009Z,14.00
2018-08-18T05:30:57.071Z,14.10
2018-08-18T05:33:27.081Z,14.10
2018-08-18T05:35:57.126Z,14.20
2018-08-18T05:38:27.119Z,14.20
2018-08-18T05:40:57.227Z,14.30
2018-08-18T05:43:27.246Z,14.40
2018-08-18T05:45:57.213Z,14.50
2018-08-18T05:48:27.202Z,14.50
2018-08-18T05:50:58.108Z,14.50
2018-08-18T05:53:29.201Z,14.60
2018-08-18T05:55:59.872Z,14.60
2018-08-18T05:58:45.710Z,14.70
2018-08-18T06:01:34.143Z,14.80
2018-08-18T06:04:11.265Z,14.90
2018-08-18T06:06:42.005Z,15.00
2018-08-18T06:09:13.483Z,15.20
2018-08-18T06:11:43.719Z,15.20
2018-08-18T06:14:14.636Z,15.40
2018-08-18T06:16:45.200Z,15.50
2018-08-18T06:19:15.268Z,15.50
2018-08-18T06:21:45.267Z,15.60
2018-08-18T06:24:15.288Z,15.70
2018-08-18T06:26:45.304Z,15.80
2018-08-18T06:29:16.630Z,15.90
2018-08-18T06:32:00.159Z,16.00
2018-08-18T06:34:34.581Z,16.10
2018-08-18T06:37:04.654Z,16.20
2018-08-18T06:39:52.729Z,16.20
2018-08-18T06:42:41.254Z,16.30
2018-08-18T06:45:14.360Z,16.40
2018-08-18T06:47:45.000Z,16.40
2018-08-18T06:50:17.502Z,16.50
2018-08-18T06:52:47.961Z,16.60
2018-08-18T06:55:20.025Z,16.60
2018-08-18T06:57:52.708Z,16.70
2018-08-18T07:00:25.170Z,16.90
2018-08-18T07:02:55.218Z,17.00
2018-08-18T07:05:25.228Z,17.10
2018-08-18T07:07:55.353Z,17.10
2018-08-18T07:10:34.384Z,17.20
2018-08-18T07:13:05.756Z,17.30
2018-08-18T07:15:37.129Z,17.40
2018-08-18T07:18:09.316Z,17.50
2018-08-18T07:20:39.467Z,17.60
2018-08-18T07:23:09.855Z,17.70
2018-08-18T07:25:49.418Z,17.80
2018-08-18T07:28:22.505Z,17.80
2018-08-18T07:30:52.643Z,17.90
2018-08-18T07:33:22.778Z,18.10
2018-08-18T07:35:52.822Z,18.10
2018-08-18T07:38:22.822Z,18.20
2018-08-18T07:40:54.843Z,18.40
2018-08-18T07:43:31.784Z,18.40
2018-08-18T07:46:04.263Z,18.60
2018-08-18T07:48:34.347Z,18.70
2018-08-18T07:51:04.532Z,18.80
2018-08-18T07:53:34.615Z,19.00
2018-08-18T07:56:04.676Z,19.10
2018-08-18T07:58:35.190Z,19.20
2018-08-18T08:01:05.242Z,19.20
2018-08-18T08:03:35.256Z,19.30
2018-08-18T08:06:05.212Z,19.40
2018-08-18T08:08:40.343Z,19.50
2018-08-18T08:11:15.164Z,19.60
2018-08-18T08:13:45.155Z,19.70
2018-08-18T08:16:15.189Z,19.80
2018-08-18T08:18:45.665Z,19.90
2018-08-18T08:21:16.093Z,19.90
2018-08-18T08:23:46.235Z,20.10
2018-08-18T08:26:16.317Z,20.20
2018-08-18T08:28:46.423Z,20.30
2018-08-18T08:31:16.430Z,20.30
2018-08-18T08:33:46.525Z,20.30
2018-08-18T08:36:17.528Z,20.30
2018-08-18T08:38:59.025Z,20.20
2018-08-18T08:41:31.391Z,20.20
2018-08-18T08:44:01.782Z,20.20
2018-08-18T08:46:31.830Z,20.20
2018-08-18T08:49:02.552Z,20.20
2018-08-18T08:51:32.655Z,20.30
2018-08-18T08:54:02.680Z,20.30
2018-08-18T08:56:39.085Z,20.40
2018-08-18T08:59:09.243Z,20.50
2018-08-18T09:01:39.583Z,20.50
2018-08-18T09:04:09.676Z,20.50
2018-08-18T09:06:43.710Z,20.50
2018-08-18T09:09:13.878Z,20.60
2018-08-18T09:11:43.933Z,20.80
2018-08-18T09:14:14.009Z,20.90
2018-08-18T09:16:44.180Z,20.90
2018-08-18T09:19:14.493Z,20.90
2018-08-18T09:21:49.644Z,21.00
2018-08-18T09:24:20.892Z,21.00
2018-08-18T09:26:53.870Z,21.10
2018-08-18T09:29:24.539Z,21.20
2018-08-18T09:31:54.728Z,21.30
2018-08-18T09:34:24.852Z,21.40
2018-08-18T09:36:54.899Z,21.40
2018-08-18T09:39:33.742Z,21.60
2018-08-18T09:42:08.136Z,21.60
2018-08-18T09:44:42.406Z,21.80
2018-08-18T09:47:12.635Z,22.00
2018-08-18T09:49:43.145Z,22.20
2018-08-18T09:52:15.840Z,22.20
2018-08-18T09:54:45.941Z,22.30
2018-08-18T09:57:16.156Z,22.40
2018-08-18T09:59:46.349Z,22.40
2018-08-18T10:02:16.488Z,22.50
2018-08-18T10:04:46.567Z,22.60
2018-08-18T10:07:16.671Z,22.70
2018-08-18T10:09:46.715Z,22.90
2018-08-18T10:12:16.877Z,23.00
2018-08-18T10:14:46.932Z,23.10
2018-08-18T10:17:17.033Z,23.20
2018-08-18T10:19:47.125Z,23.30
2018-08-18T10:22:17.212Z,23.30
2018-08-18T10:24:47.271Z,23.30
2018-08-18T10:27:19.055Z,23.40
2018-08-18T10:29:49.081Z,23.40
2018-08-18T10:32:19.110Z,23.60
2018-08-18T10:34:49.213Z,23.60
2018-08-18T10:37:19.298Z,23.60
2018-08-18T10:39:51.209Z,23.60
2018-08-18T10:42:26.243Z,23.70
2018-08-18T10:45:01.541Z,23.70
2018-08-18T10:47:32.117Z,23.80
2018-08-18T10:50:20.461Z,23.90
2018-08-18T10:52:58.664Z,23.80
2018-08-18T10:55:28.783Z,23.90
2018-08-18T10:58:06.951Z,24.10
2018-08-18T11:00:37.119Z,24.10
2018-08-18T11:03:08.367Z,24.30
2018-08-18T11:05:38.372Z,24.40
2018-08-18T11:08:09.384Z,24.40
2018-08-18T11:10:42.110Z,24.30
2018-08-18T11:13:12.117Z,24.30
2018-08-18T11:15:43.366Z,24.30
2018-08-18T11:18:13.474Z,24.40
2018-08-18T11:20:43.541Z,24.60
2018-08-18T11:23:14.557Z,24.70
2018-08-18T11:25:50.178Z,24.80
2018-08-18T11:28:20.970Z,24.70
2018-08-18T11:30:54.135Z,24.80
2018-08-18T11:33:44.118Z,24.80
2018-08-18T11:36:14.265Z,24.70
2018-08-18T11:38:44.338Z,24.80
2018-08-18T11:41:14.350Z,24.80
2018-08-18T11:43:49.585Z,24.80
2018-08-18T11:46:19.624Z,24.80
2018-08-18T11:48:49.647Z,24.80
2018-08-18T11:51:19.722Z,24.90
2018-08-18T11:54:00.843Z,25.00
2018-08-18T11:56:32.156Z,25.10
2018-08-18T11:59:13.661Z,25.10
2018-08-18T12:01:47.177Z,25.30
2018-08-18T12:04:17.694Z,25.30
2018-08-18T12:06:52.729Z,25.20
2018-08-18T12:09:22.751Z,25.30
2018-08-18T12:11:52.972Z,25.30
2018-08-18T12:14:23.301Z,25.30
2018-08-18T12:16:53.483Z,25.30
2018-08-18T12:19:23.514Z,25.00
2018-08-18T12:21:54.804Z,25.00
2018-08-18T12:24:24.845Z,25.10
2018-08-18T12:27:06.742Z,25.20
2018-08-18T12:29:36.798Z,25.10
2018-08-18T12:32:18.538Z,25.20
2018-08-18T12:34:48.569Z,25.20
2018-08-18T12:37:18.751Z,25.40
2018-08-18T12:39:48.751Z,25.40
2018-08-18T12:42:26.722Z,25.30
2018-08-18T12:44:57.726Z,25.10
2018-08-18T12:47:28.015Z,25.20
2018-08-18T12:49:58.068Z,25.30
2018-08-18T12:52:29.199Z,25.20
2018-08-18T12:54:59.178Z,25.30
2018-08-18T12:57:40.929Z,25.30
2018-08-18T13:00:11.099Z,25.30
2018-08-18T13:02:51.443Z,25.40
2018-08-18T13:05:26.467Z,25.20
2018-08-18T13:07:57.124Z,25.30
2018-08-18T13:10:28.444Z,25.30
2018-08-18T13:12:58.680Z,25.30
2018-08-18T13:15:28.711Z,25.30
2018-08-18T13:17:58.730Z,25.30
2018-08-18T13:20:28.693Z,25.40
2018-08-18T13:22:58.731Z,25.40
2018-08-18T13:25:30.191Z,25.60
2018-08-18T13:28:00.284Z,25.60
2018-08-18T13:30:30.261Z,25.60
2018-08-18T13:33:00.463Z,25.60
2018-08-18T13:35:30.515Z,25.70
2018-08-18T13:38:00.528Z,25.70
2018-08-18T13:40:30.595Z,25.70
2018-08-18T13:43:00.646Z,25.60
2018-08-18T13:45:41.786Z,25.60
2018-08-18T13:48:13.445Z,25.50
2018-08-18T13:50:43.516Z,25.50
2018-08-18T13:53:13.537Z,25.50
2018-08-18T13:55:43.598Z,25.50
2018-08-18T13:58:13.784Z,25.60
2018-08-18T14:00:43.821Z,25.70
2018-08-18T14:03:27.995Z,25.60
2018-08-18T14:05:59.104Z,25.70
2018-08-18T14:08:29.107Z,25.90
2018-08-18T14:10:59.241Z,25.90
2018-08-18T14:13:30.105Z,25.90
2018-08-18T14:16:00.209Z,25.90
2018-08-18T14:18:30.268Z,26.10
2018-08-18T14:21:05.566Z,26.10
2018-08-18T14:23:35.585Z,26.10
2018-08-18T14:26:05.721Z,26.00
2018-08-18T14:28:35.823Z,26.00
2018-08-18T14:31:05.925Z,25.90
2018-08-18T14:33:35.933Z,25.90
2018-08-18T14:36:12.436Z,25.90
2018-08-18T14:38:44.449Z,25.80
2018-08-18T14:41:16.504Z,25.80
2018-08-18T14:43:46.529Z,25.70
2018-08-18T14:46:16.669Z,25.70
2018-08-18T14:48:46.638Z,25.70
2018-08-18T14:51:16.719Z,25.70
2018-08-18T14:53:46.732Z,25.60
2018-08-18T14:56:16.769Z,25.40
2018-08-18T14:58:46.935Z,25.50
2018-08-18T15:01:16.875Z,25.50
2018-08-18T15:03:47.152Z,25.10
2018-08-18T15:06:17.210Z,25.00
2018-08-18T15:08:47.279Z,24.90
2018-08-18T15:11:17.304Z,24.80
2018-08-18T15:13:47.403Z,24.80
2018-08-18T15:16:17.403Z,24.80
2018-08-18T15:18:47.517Z,24.80
2018-08-18T15:21:17.555Z,24.70
2018-08-18T15:23:47.608Z,24.70
2018-08-18T15:26:17.629Z,24.60
2018-08-18T15:28:47.676Z,24.70
2018-08-18T15:31:17.707Z,24.80
2018-08-18T15:33:47.758Z,24.90
2018-08-18T15:36:32.139Z,25.00
2018-08-18T15:39:02.255Z,25.10
2018-08-18T15:41:32.273Z,24.90
2018-08-18T15:44:02.389Z,24.90
2018-08-18T15:46:32.392Z,24.80
2018-08-18T15:49:02.558Z,24.80
2018-08-18T15:51:32.597Z,24.80
2018-08-18T15:54:03.770Z,24.70
2018-08-18T15:56:34.995Z,24.60
2018-08-18T15:59:05.347Z,24.60
2018-08-18T16:01:36.390Z,24.40
2018-08-18T16:04:06.544Z,24.40
2018-08-18T16:06:36.533Z,24.20
2018-08-18T16:09:09.423Z,24.20
2018-08-18T16:11:39.398Z,24.10
2018-08-18T16:14:09.442Z,24.00
2018-08-18T16:17:13.670Z,23.90
2018-08-18T16:19:43.691Z,23.90
2018-08-18T16:22:13.692Z,23.80
2018-08-18T16:24:46.508Z,23.70
2018-08-18T16:27:16.542Z,23.70
2018-08-18T16:29:46.580Z,23.60
2018-08-18T16:32:23.209Z,23.60
2018-08-18T16:35:13.416Z,23.60
2018-08-18T16:37:46.290Z,23.60
2018-08-18T16:40:16.415Z,23.60
2018-08-18T16:42:46.406Z,23.60
2018-08-18T16:45:16.423Z,23.60
2018-08-18T16:47:52.402Z,23.60
2018-08-18T16:50:23.306Z,23.60
2018-08-18T16:52:53.299Z,23.70
2018-08-18T16:55:23.323Z,23.60
2018-08-18T16:57:53.322Z,23.60
2018-08-18T17:00:22.223Z,23.60
2018-08-18T17:02:52.355Z,23.60
2018-08-18T17:05:22.386Z,23.60
2018-08-18T17:07:52.446Z,23.60
2018-08-18T17:10:22.404Z,23.50
2018-08-18T17:12:52.454Z,23.50
2018-08-18T17:15:22.475Z,23.50
2018-08-18T17:17:52.486Z,23.40
2018-08-18T17:20:22.430Z,23.40
2018-08-18T17:22:52.454Z,23.40
2018-08-18T17:25:24.861Z,23.30
2018-08-18T17:27:55.004Z,23.20
2018-08-18T17:30:25.040Z,23.10
2018-08-18T17:32:55.120Z,23.00
2018-08-18T17:35:25.112Z,23.00
2018-08-18T17:37:55.139Z,22.90
2018-08-18T17:40:25.170Z,22.80
2018-08-18T17:42:55.269Z,22.70
2018-08-18T17:45:25.353Z,22.70
2018-08-18T17:47:55.487Z,22.60
2018-08-18T17:50:25.585Z,22.60
2018-08-18T17:52:55.785Z,22.50
2018-08-18T17:55:25.932Z,22.50
2018-08-18T17:57:56.150Z,22.40
2018-08-18T18:00:26.407Z,22.40
2018-08-18T18:02:56.680Z,22.30
2018-08-18T18:05:30.612Z,22.20
2018-08-18T18:08:03.862Z,22.10
2018-08-18T18:10:39.300Z,22.00
2018-08-18T18:13:18.637Z,21.90
2018-08-18T18:15:49.017Z,21.80
2018-08-18T18:18:20.438Z,21.70
2018-08-18T18:20:52.131Z,21.60
2018-08-18T18:23:22.918Z,21.50
2018-08-18T18:25:53.070Z,21.50
2018-08-18T18:28:23.237Z,21.40
2018-08-18T18:30:54.590Z,21.30
2018-08-18T18:33:24.798Z,21.20
2018-08-18T18:35:54.930Z,21.10
2018-08-18T18:38:25.061Z,21.00
2018-08-18T18:40:55.112Z,21.00
2018-08-18T18:43:25.260Z,20.90
2018-08-18T18:45:55.465Z,20.70
2018-08-18T18:48:25.531Z,20.60
2018-08-18T18:50:55.741Z,20.40
2018-08-18T18:53:26.306Z,20.40
2018-08-18T18:55:56.445Z,20.30
2018-08-18T18:58:26.582Z,20.20
2018-08-18T19:01:11.252Z,20.10
2018-08-18T19:03:41.307Z,20.00
2018-08-18T19:06:13.860Z,19.90
2018-08-18T19:09:02.525Z,19.90
2018-08-18T19:11:36.603Z,19.80
2018-08-18T19:14:08.580Z,19.70
2018-08-18T19:16:40.338Z,19.60
2018-08-18T19:19:12.151Z,19.50
2018-08-18T19:21:45.380Z,19.50
2018-08-18T19:24:24.916Z,19.40
2018-08-18T19:27:01.188Z,19.40
2018-08-18T19:29:33.559Z,19.40
2018-08-18T19:32:05.108Z,19.30
2018-08-18T19:34:37.259Z,19.30
2018-08-18T19:37:10.126Z,19.30
2018-08-18T19:39:44.165Z,19.20
2018-08-18T19:42:24.065Z,19.20
2018-08-18T19:44:55.011Z,19.10
2018-08-18T19:47:30.132Z,19.10
2018-08-18T19:50:02.363Z,19.10
2018-08-18T19:52:35.028Z,19.10
2018-08-18T19:55:08.801Z,19.00
2018-08-18T19:57:42.857Z,19.00
2018-08-18T20:00:23.387Z,19.00
2018-08-18T20:03:08.108Z,19.00
2018-08-18T20:05:40.568Z,19.00
2018-08-18T20:08:12.715Z,19.00
2018-08-18T20:10:49.806Z,19.00
2018-08-18T20:13:23.128Z,19.00
2018-08-18T20:15:56.369Z,19.00
2018-08-18T20:18:28.879Z,18.90
2018-08-18T20:21:01.780Z,18.90
2018-08-18T20:23:35.372Z,18.90
2018-08-18T20:26:09.951Z,18.80
2018-08-18T20:28:41.320Z,18.80
2018-08-18T20:31:13.780Z,18.80
2018-08-18T20:33:45.791Z,18.80
2018-08-18T20:36:17.508Z,18.80
2018-08-18T20:38:49.641Z,18.70
2018-08-18T20:41:22.389Z,18.70
2018-08-18T20:43:54.196Z,18.70
2018-08-18T20:46:26.863Z,18.70
2018-08-18T20:48:58.889Z,18.70
2018-08-18T20:51:36.082Z,18.70
2018-08-18T20:54:15.150Z,18.70
2018-08-18T20:56:48.188Z,18.60
2018-08-18T20:59:18.318Z,18.60
2018-08-18T21:01:48.357Z,18.60
2018-08-18T21:04:18.467Z,18.60
2018-08-18T21:06:48.528Z,18.60
2018-08-18T21:09:32.024Z,18.60
2018-08-18T21:12:02.060Z,18.60
2018-08-18T21:14:32.199Z,18.60
2018-08-18T21:17:02.291Z,18.60
2018-08-18T21:19:32.414Z,18.60
2018-08-18T21:22:02.440Z,18.60
2018-08-18T21:24:32.504Z,18.60
2018-08-18T21:27:02.601Z,18.60
2018-08-18T21:29:32.663Z,18.60
2018-08-18T21:32:02.708Z,18.60
2018-08-18T21:34:44.307Z,18.60
2018-08-18T21:37:14.441Z,18.60
2018-08-18T21:39:44.560Z,18.60
2018-08-18T21:42:14.602Z,18.60
2018-08-18T21:44:44.710Z,18.60
2018-08-18T21:47:14.757Z,18.60
2018-08-18T21:49:47.283Z,18.70
2018-08-18T21:52:17.679Z,18.70
2018-08-18T21:54:47.770Z,18.70
2018-08-18T21:57:17.811Z,18.70
2018-08-18T22:00:00.390Z,18.80
2018-08-18T22:02:42.271Z,18.80
2018-08-18T22:05:14.839Z,18.80
2018-08-18T22:07:52.263Z,18.80
2018-08-18T22:10:22.624Z,18.80
2018-08-18T22:12:52.728Z,18.80
2018-08-18T22:15:23.305Z,18.80
2018-08-18T22:17:54.152Z,18.80
2018-08-18T22:20:24.681Z,18.80
2018-08-18T22:22:55.404Z,18.80
2018-08-18T22:25:25.512Z,18.80
2018-08-18T22:27:55.714Z,18.70
2018-08-18T22:30:28.457Z,18.70
2018-08-18T22:32:58.572Z,18.70
2018-08-18T22:35:28.700Z,18.70
2018-08-18T22:37:58.803Z,18.70
2018-08-18T22:40:28.900Z,18.60
2018-08-18T22:42:58.935Z,18.60
2018-08-18T22:45:31.344Z,18.50
2018-08-18T22:48:01.497Z,18.50
2018-08-18T22:50:31.675Z,18.50
2018-08-18T22:53:01.781Z,18.40
2018-08-18T22:55:33.147Z,18.40
2018-08-18T22:58:03.427Z,18.40
2018-08-18T23:00:39.612Z,18.30
2018-08-18T23:03:09.815Z,18.30
2018-08-18T23:05:39.927Z,18.30
2018-08-18T23:08:10.163Z,18.30
2018-08-18T23:10:40.283Z,18.30
2018-08-18T23:13:12.079Z,18.30
2018-08-18T23:15:42.149Z,18.30
2018-08-18T23:18:12.334Z,18.30
2018-08-18T23:20:42.430Z,18.20
2018-08-18T23:23:12.574Z,18.20
2018-08-18T23:25:42.663Z,18.20
2018-08-18T23:28:12.717Z,18.20
2018-08-18T23:30:43.589Z,18.10
2018-08-18T23:33:13.719Z,18.10
2018-08-18T23:35:43.766Z,18.10
2018-08-18T23:38:13.810Z,18.10
2018-08-18T23:40:43.854Z,18.10
2018-08-18T23:43:13.993Z,18.10
2018-08-18T23:45:48.985Z,18.00
2018-08-18T23:48:19.044Z,18.00
2018-08-18T23:50:49.082Z,17.90
2018-08-18T23:53:19.498Z,17.90
2018-08-18T23:55:54.670Z,17.80
2018-08-18T23:58:24.771Z,17.80
